sensor_id;sensor_type;location;lat;lon;timestamp;temperature;humidity
21944;DHT22;11136;48.778;9.126;2023-08-21T00:00:09;27.70;95.20
21944;DHT22;11136;48.778;9.126;2023-08-21T00:02:39;27.50;95.00
21944;DHT22;11136;48.778;9.126;2023-08-21T00:05:04;27.50;95.00
21944;DHT22;11136;48.778;9.126;2023-08-21T00:07:30;27.50;95.10
21944;DHT22;11136;48.778;9.126;2023-08-21T00:10:03;27.40;95.20
21944;DHT22;11136;48.778;9.126;2023-08-21T00:12:32;27.40;95.20
21944;DHT22;11136;48.778;9.126;2023-08-21T00:14:58;27.40;95.20
21944;DHT22;11136;48.778;9.126;2023-08-21T00:17:23;27.40;95.30
21944;DHT22;11136;48.778;9.126;2023-08-21T00:19:50;27.40;95.30
21944;DHT22;11136;48.778;9.126;2023-08-21T00:22:17;27.40;95.30
21944;DHT22;11136;48.778;9.126;2023-08-21T00:24:44;27.40;95.40
21944;DHT22;11136;48.778;9.126;2023-08-21T00:27:11;27.30;95.30
21944;DHT22;11136;48.778;9.126;2023-08-21T00:29:36;27.30;95.40
21944;DHT22;11136;48.778;9.126;2023-08-21T00:32:02;27.30;95.40
21944;DHT22;11136;48.778;9.126;2023-08-21T00:34:27;27.30;95.40
21944;DHT22;11136;48.778;9.126;2023-08-21T00:36:53;27.30;95.40
21944;DHT22;11136;48.778;9.126;2023-08-21T00:39:18;27.30;95.50
21944;DHT22;11136;48.778;9.126;2023-08-21T00:41:45;27.30;95.50
21944;DHT22;11136;48.778;9.126;2023-08-21T00:44:10;27.30;95.60
21944;DHT22;11136;48.778;9.126;2023-08-21T00:46:36;27.20;95.60
21944;DHT22;11136;48.778;9.126;2023-08-21T00:49:02;27.20;95.60
21944;DHT22;11136;48.778;9.126;2023-08-21T00:51:28;27.40;95.70
21944;DHT22;11136;48.778;9.126;2023-08-21T00:53:53;27.20;95.70
21944;DHT22;11136;48.778;9.126;2023-08-21T00:56:20;27.20;95.70
21944;DHT22;11136;48.778;9.126;2023-08-21T00:58:47;27.40;95.80
21944;DHT22;11136;48.778;9.126;2023-08-21T01:01:15;27.20;96.20
21944;DHT22;11136;48.778;9.126;2023-08-21T01:03:43;27.20;95.90
21944;DHT22;11136;48.778;9.126;2023-08-21T01:06:09;27.20;95.90
21944;DHT22;11136;48.778;9.126;2023-08-21T01:08:46;27.20;95.90
21944;DHT22;11136;48.778;9.126;2023-08-21T01:11:14;27.10;95.90
21944;DHT22;11136;48.778;9.126;2023-08-21T01:17:00;27.10;96.00
21944;DHT22;11136;48.778;9.126;2023-08-21T01:19:37;27.00;96.10
21944;DHT22;11136;48.778;9.126;2023-08-21T01:22:07;27.00;96.10
21944;DHT22;11136;48.778;9.126;2023-08-21T01:24:37;27.00;96.10
21944;DHT22;11136;48.778;9.126;2023-08-21T01:27:06;26.90;96.20
21944;DHT22;11136;48.778;9.126;2023-08-21T01:29:37;26.90;96.20
21944;DHT22;11136;48.778;9.126;2023-08-21T01:32:06;26.90;96.20
21944;DHT22;11136;48.778;9.126;2023-08-21T01:34:34;26.80;96.20
21944;DHT22;11136;48.778;9.126;2023-08-21T01:37:02;26.80;96.30
21944;DHT22;11136;48.778;9.126;2023-08-21T01:39:28;26.80;96.30
21944;DHT22;11136;48.778;9.126;2023-08-21T01:41:57;26.90;96.40
21944;DHT22;11136;48.778;9.126;2023-08-21T01:44:23;26.70;96.40
21944;DHT22;11136;48.778;9.126;2023-08-21T01:46:48;26.80;96.40
21944;DHT22;11136;48.778;9.126;2023-08-21T01:49:16;26.80;96.40
21944;DHT22;11136;48.778;9.126;2023-08-21T01:51:46;26.70;96.50
21944;DHT22;11136;48.778;9.126;2023-08-21T01:54:15;26.60;96.50
21944;DHT22;11136;48.778;9.126;2023-08-21T01:56:40;26.60;96.50
21944;DHT22;11136;48.778;9.126;2023-08-21T01:59:06;26.60;96.60
21944;DHT22;11136;48.778;9.126;2023-08-21T02:01:33;26.70;96.70
21944;DHT22;11136;48.778;9.126;2023-08-21T02:04:01;26.50;96.60
21944;DHT22;11136;48.778;9.126;2023-08-21T02:06:32;26.50;96.70
21944;DHT22;11136;48.778;9.126;2023-08-21T02:08:59;26.50;96.70
21944;DHT22;11136;48.778;9.126;2023-08-21T02:11:27;26.50;96.70
21944;DHT22;11136;48.778;9.126;2023-08-21T02:13:54;26.60;96.80
21944;DHT22;11136;48.778;9.126;2023-08-21T02:16:20;26.50;96.80
21944;DHT22;11136;48.778;9.126;2023-08-21T02:18:47;26.40;96.80
21944;DHT22;11136;48.778;9.126;2023-08-21T02:21:13;26.40;96.80
21944;DHT22;11136;48.778;9.126;2023-08-21T02:23:42;26.40;96.90
21944;DHT22;11136;48.778;9.126;2023-08-21T02:26:08;26.40;97.00
21944;DHT22;11136;48.778;9.126;2023-08-21T02:28:37;26.30;96.90
21944;DHT22;11136;48.778;9.126;2023-08-21T02:31:09;26.30;97.00
21944;DHT22;11136;48.778;9.126;2023-08-21T02:33:37;26.40;97.00
21944;DHT22;11136;48.778;9.126;2023-08-21T02:36:04;26.20;97.00
21944;DHT22;11136;48.778;9.126;2023-08-21T02:38:30;26.20;97.10
21944;DHT22;11136;48.778;9.126;2023-08-21T02:40:58;26.20;97.20
21944;DHT22;11136;48.778;9.126;2023-08-21T02:43:27;26.20;97.20
21944;DHT22;11136;48.778;9.126;2023-08-21T02:45:54;26.10;97.20
21944;DHT22;11136;48.778;9.126;2023-08-21T02:48:26;26.20;97.20
21944;DHT22;11136;48.778;9.126;2023-08-21T02:50:51;26.10;97.30
21944;DHT22;11136;48.778;9.126;2023-08-21T02:53:19;26.00;97.30
21944;DHT22;11136;48.778;9.126;2023-08-21T02:55:46;26.00;97.30
21944;DHT22;11136;48.778;9.126;2023-08-21T02:58:12;26.00;97.40
21944;DHT22;11136;48.778;9.126;2023-08-21T03:00:38;26.00;97.40
21944;DHT22;11136;48.778;9.126;2023-08-21T03:03:04;26.00;97.40
21944;DHT22;11136;48.778;9.126;2023-08-21T03:05:31;26.00;97.40
21944;DHT22;11136;48.778;9.126;2023-08-21T03:07:57;26.10;97.50
21944;DHT22;11136;48.778;9.126;2023-08-21T03:10:23;25.90;97.50
21944;DHT22;11136;48.778;9.126;2023-08-21T03:12:50;26.00;97.60
21944;DHT22;11136;48.778;9.126;2023-08-21T03:15:17;25.90;97.60
21944;DHT22;11136;48.778;9.126;2023-08-21T03:17:42;25.90;97.60
21944;DHT22;11136;48.778;9.126;2023-08-21T03:20:08;25.80;97.60
21944;DHT22;11136;48.778;9.126;2023-08-21T03:22:38;25.80;98.00
21944;DHT22;11136;48.778;9.126;2023-08-21T03:25:03;25.80;97.70
21944;DHT22;11136;48.778;9.126;2023-08-21T03:27:29;25.80;97.70
21944;DHT22;11136;48.778;9.126;2023-08-21T03:29:55;25.80;97.80
21944;DHT22;11136;48.778;9.126;2023-08-21T03:32:21;25.80;97.80
21944;DHT22;11136;48.778;9.126;2023-08-21T03:34:48;25.80;97.90
21944;DHT22;11136;48.778;9.126;2023-08-21T03:37:15;25.90;97.90
21944;DHT22;11136;48.778;9.126;2023-08-21T03:39:43;25.80;97.90
21944;DHT22;11136;48.778;9.126;2023-08-21T03:42:10;25.80;97.90
21944;DHT22;11136;48.778;9.126;2023-08-21T03:44:38;25.70;97.90
21944;DHT22;11136;48.778;9.126;2023-08-21T03:47:04;25.90;98.00
21944;DHT22;11136;48.778;9.126;2023-08-21T03:49:30;25.70;97.90
21944;DHT22;11136;48.778;9.126;2023-08-21T03:51:56;25.70;97.90
21944;DHT22;11136;48.778;9.126;2023-08-21T03:54:22;25.60;97.90
21944;DHT22;11136;48.778;9.126;2023-08-21T03:56:49;25.60;98.00
21944;DHT22;11136;48.778;9.126;2023-08-21T03:59:15;25.60;98.00
21944;DHT22;11136;48.778;9.126;2023-08-21T04:01:43;25.60;98.00
21944;DHT22;11136;48.778;9.126;2023-08-21T04:04:10;25.50;98.10
21944;DHT22;11136;48.778;9.126;2023-08-21T04:06:36;25.50;98.10
21944;DHT22;11136;48.778;9.126;2023-08-21T04:09:02;25.40;98.10
21944;DHT22;11136;48.778;9.126;2023-08-21T04:11:31;25.50;98.20
21944;DHT22;11136;48.778;9.126;2023-08-21T04:13:57;25.50;98.30
21944;DHT22;11136;48.778;9.126;2023-08-21T04:16:24;25.40;98.20
21944;DHT22;11136;48.778;9.126;2023-08-21T04:18:50;25.40;98.30
21944;DHT22;11136;48.778;9.126;2023-08-21T04:21:15;25.40;98.30
21944;DHT22;11136;48.778;9.126;2023-08-21T04:23:44;25.60;98.40
21944;DHT22;11136;48.778;9.126;2023-08-21T04:26:11;25.40;98.40
21944;DHT22;11136;48.778;9.126;2023-08-21T04:28:37;25.30;98.40
21944;DHT22;11136;48.778;9.126;2023-08-21T04:31:06;25.30;98.40
21944;DHT22;11136;48.778;9.126;2023-08-21T04:33:32;25.30;98.50
21944;DHT22;11136;48.778;9.126;2023-08-21T04:35:58;25.30;98.50
21944;DHT22;11136;48.778;9.126;2023-08-21T04:38:24;25.30;98.60
21944;DHT22;11136;48.778;9.126;2023-08-21T04:40:50;25.20;98.60
21944;DHT22;11136;48.778;9.126;2023-08-21T04:43:15;25.20;98.60
21944;DHT22;11136;48.778;9.126;2023-08-21T04:45:51;25.20;98.60
21944;DHT22;11136;48.778;9.126;2023-08-21T04:48:20;25.20;98.80
21944;DHT22;11136;48.778;9.126;2023-08-21T04:50:46;25.20;98.70
21944;DHT22;11136;48.778;9.126;2023-08-21T04:53:13;25.30;98.80
21944;DHT22;11136;48.778;9.126;2023-08-21T04:55:42;25.20;98.90
21944;DHT22;11136;48.778;9.126;2023-08-21T04:58:09;25.20;98.90
21944;DHT22;11136;48.778;9.126;2023-08-21T05:00:35;25.20;98.90
21944;DHT22;11136;48.778;9.126;2023-08-21T05:03:01;25.10;99.00
21944;DHT22;11136;48.778;9.126;2023-08-21T05:05:27;25.10;99.10
21944;DHT22;11136;48.778;9.126;2023-08-21T05:07:53;25.20;99.20
21944;DHT22;11136;48.778;9.126;2023-08-21T05:10:21;25.20;99.30
21944;DHT22;11136;48.778;9.126;2023-08-21T05:12:46;25.20;99.40
21944;DHT22;11136;48.778;9.126;2023-08-21T05:15:12;25.10;99.40
21944;DHT22;11136;48.778;9.126;2023-08-21T05:17:38;25.10;99.50
21944;DHT22;11136;48.778;9.126;2023-08-21T05:20:04;25.10;99.50
21944;DHT22;11136;48.778;9.126;2023-08-21T05:22:30;25.10;99.60
21944;DHT22;11136;48.778;9.126;2023-08-21T05:24:55;25.10;99.70
21944;DHT22;11136;48.778;9.126;2023-08-21T05:27:21;25.10;99.80
21944;DHT22;11136;48.778;9.126;2023-08-21T05:29:46;25.10;99.80
21944;DHT22;11136;48.778;9.126;2023-08-21T05:32:12;25.10;99.90
21944;DHT22;11136;48.778;9.126;2023-08-21T05:34:38;25.10;99.90
21944;DHT22;11136;48.778;9.126;2023-08-21T05:37:05;25.10;99.90
21944;DHT22;11136;48.778;9.126;2023-08-21T05:39:30;25.20;99.90
21944;DHT22;11136;48.778;9.126;2023-08-21T05:41:56;25.20;99.90
21944;DHT22;11136;48.778;9.126;2023-08-21T05:44:26;25.20;99.90
21944;DHT22;11136;48.778;9.126;2023-08-21T05:46:52;25.20;99.90
21944;DHT22;11136;48.778;9.126;2023-08-21T05:49:19;25.20;99.90
21944;DHT22;11136;48.778;9.126;2023-08-21T05:51:45;25.20;99.90
21944;DHT22;11136;48.778;9.126;2023-08-21T05:54:11;25.10;99.90
21944;DHT22;11136;48.778;9.126;2023-08-21T05:56:36;25.20;99.90
21944;DHT22;11136;48.778;9.126;2023-08-21T05:59:04;25.20;99.90
21944;DHT22;11136;48.778;9.126;2023-08-21T06:01:32;25.30;99.90
21944;DHT22;11136;48.778;9.126;2023-08-21T06:04:03;25.20;99.90
21944;DHT22;11136;48.778;9.126;2023-08-21T06:06:38;25.30;99.90
21944;DHT22;11136;48.778;9.126;2023-08-21T06:09:03;25.30;99.90
21944;DHT22;11136;48.778;9.126;2023-08-21T06:11:30;25.40;99.90
21944;DHT22;11136;48.778;9.126;2023-08-21T06:13:55;25.40;99.90
21944;DHT22;11136;48.778;9.126;2023-08-21T06:16:23;25.40;99.90
21944;DHT22;11136;48.778;9.126;2023-08-21T06:18:49;25.60;99.90
21944;DHT22;11136;48.778;9.126;2023-08-21T06:21:15;25.50;99.90
21944;DHT22;11136;48.778;9.126;2023-08-21T06:23:41;25.60;99.90
21944;DHT22;11136;48.778;9.126;2023-08-21T06:26:09;25.60;99.90
21944;DHT22;11136;48.778;9.126;2023-08-21T06:28:39;25.70;99.90
21944;DHT22;11136;48.778;9.126;2023-08-21T06:31:08;25.80;99.90
21944;DHT22;11136;48.778;9.126;2023-08-21T06:33:37;25.80;99.90
21944;DHT22;11136;48.778;9.126;2023-08-21T06:36:05;26.00;99.90
21944;DHT22;11136;48.778;9.126;2023-08-21T06:38:31;25.90;99.90
21944;DHT22;11136;48.778;9.126;2023-08-21T06:40:58;26.10;99.90
21944;DHT22;11136;48.778;9.126;2023-08-21T06:43:25;25.90;99.90
21944;DHT22;11136;48.778;9.126;2023-08-21T06:45:50;26.00;99.90
21944;DHT22;11136;48.778;9.126;2023-08-21T06:48:16;26.00;99.90
21944;DHT22;11136;48.778;9.126;2023-08-21T06:50:43;26.10;99.80
21944;DHT22;11136;48.778;9.126;2023-08-21T06:53:09;26.10;99.70
21944;DHT22;11136;48.778;9.126;2023-08-21T06:55:34;26.20;99.50
21944;DHT22;11136;48.778;9.126;2023-08-21T06:58:00;26.20;99.50
21944;DHT22;11136;48.778;9.126;2023-08-21T07:00:25;26.20;99.20
21944;DHT22;11136;48.778;9.126;2023-08-21T07:02:51;26.40;99.20
21944;DHT22;11136;48.778;9.126;2023-08-21T07:05:17;26.40;99.30
21944;DHT22;11136;48.778;9.126;2023-08-21T07:07:45;26.40;99.20
21944;DHT22;11136;48.778;9.126;2023-08-21T07:10:10;26.50;99.20
21944;DHT22;11136;48.778;9.126;2023-08-21T07:12:36;26.50;99.20
21944;DHT22;11136;48.778;9.126;2023-08-21T07:15:01;26.50;99.10
21944;DHT22;11136;48.778;9.126;2023-08-21T07:17:27;26.60;99.20
21944;DHT22;11136;48.778;9.126;2023-08-21T07:19:54;26.70;99.20
21944;DHT22;11136;48.778;9.126;2023-08-21T07:22:20;26.70;99.20
21944;DHT22;11136;48.778;9.126;2023-08-21T07:24:46;26.70;99.10
21944;DHT22;11136;48.778;9.126;2023-08-21T07:27:12;26.80;99.10
21944;DHT22;11136;48.778;9.126;2023-08-21T07:29:37;26.80;99.20
21944;DHT22;11136;48.778;9.126;2023-08-21T07:32:03;27.00;99.20
21944;DHT22;11136;48.778;9.126;2023-08-21T07:34:29;27.00;99.20
21944;DHT22;11136;48.778;9.126;2023-08-21T07:36:54;27.00;99.10
21944;DHT22;11136;48.778;9.126;2023-08-21T07:39:20;27.00;98.90
21944;DHT22;11136;48.778;9.126;2023-08-21T07:41:45;27.10;98.90
21944;DHT22;11136;48.778;9.126;2023-08-21T07:44:11;27.10;98.90
21944;DHT22;11136;48.778;9.126;2023-08-21T07:46:37;27.20;98.90
21944;DHT22;11136;48.778;9.126;2023-08-21T07:49:02;27.20;98.80
21944;DHT22;11136;48.778;9.126;2023-08-21T07:51:28;27.30;98.80
21944;DHT22;11136;48.778;9.126;2023-08-21T07:53:53;27.40;98.70
21944;DHT22;11136;48.778;9.126;2023-08-21T07:56:19;27.40;98.60
21944;DHT22;11136;48.778;9.126;2023-08-21T07:58:45;27.40;98.50
21944;DHT22;11136;48.778;9.126;2023-08-21T08:01:10;27.60;98.50
21944;DHT22;11136;48.778;9.126;2023-08-21T08:03:36;27.60;98.40
21944;DHT22;11136;48.778;9.126;2023-08-21T08:06:01;27.70;98.30
21944;DHT22;11136;48.778;9.126;2023-08-21T08:08:27;27.70;98.00
21944;DHT22;11136;48.778;9.126;2023-08-21T08:10:54;27.80;98.20
21944;DHT22;11136;48.778;9.126;2023-08-21T08:13:20;28.00;98.50
21944;DHT22;11136;48.778;9.126;2023-08-21T08:15:46;28.20;98.20
21944;DHT22;11136;48.778;9.126;2023-08-21T08:18:12;28.50;98.10
21944;DHT22;11136;48.778;9.126;2023-08-21T08:20:38;28.70;97.90
21944;DHT22;11136;48.778;9.126;2023-08-21T08:23:04;29.00;97.60
21944;DHT22;11136;48.778;9.126;2023-08-21T08:25:30;29.20;97.20
21944;DHT22;11136;48.778;9.126;2023-08-21T08:27:59;29.40;96.80
21944;DHT22;11136;48.778;9.126;2023-08-21T08:30:26;29.50;96.40
21944;DHT22;11136;48.778;9.126;2023-08-21T08:32:52;29.60;96.00
21944;DHT22;11136;48.778;9.126;2023-08-21T08:35:18;29.70;95.90
21944;DHT22;11136;48.778;9.126;2023-08-21T08:37:51;29.70;95.60
21944;DHT22;11136;48.778;9.126;2023-08-21T08:40:20;29.70;95.30
21944;DHT22;11136;48.778;9.126;2023-08-21T08:42:50;29.70;95.20
21944;DHT22;11136;48.778;9.126;2023-08-21T08:45:28;29.70;95.20
21944;DHT22;11136;48.778;9.126;2023-08-21T08:48:00;29.70;95.10
21944;DHT22;11136;48.778;9.126;2023-08-21T08:50:31;29.60;95.10
21944;DHT22;11136;48.778;9.126;2023-08-21T08:52:58;29.60;95.30
21944;DHT22;11136;48.778;9.126;2023-08-21T08:55:25;29.60;95.20
21944;DHT22;11136;48.778;9.126;2023-08-21T08:57:52;29.60;95.10
21944;DHT22;11136;48.778;9.126;2023-08-21T09:00:18;29.60;95.00
21944;DHT22;11136;48.778;9.126;2023-08-21T09:02:44;29.70;94.60
21944;DHT22;11136;48.778;9.126;2023-08-21T09:05:10;29.70;94.40
21944;DHT22;11136;48.778;9.126;2023-08-21T09:07:36;29.70;94.20
21944;DHT22;11136;48.778;9.126;2023-08-21T09:10:01;29.80;94.50
21944;DHT22;11136;48.778;9.126;2023-08-21T09:12:31;29.90;94.40
21944;DHT22;11136;48.778;9.126;2023-08-21T09:14:58;30.10;94.40
21944;DHT22;11136;48.778;9.126;2023-08-21T09:17:24;30.10;94.40
21944;DHT22;11136;48.778;9.126;2023-08-21T09:19:51;30.20;94.30
21944;DHT22;11136;48.778;9.126;2023-08-21T09:22:18;30.30;93.60
21944;DHT22;11136;48.778;9.126;2023-08-21T09:25:16;30.40;93.60
21944;DHT22;11136;48.778;9.126;2023-08-21T09:27:43;30.60;93.60
21944;DHT22;11136;48.778;9.126;2023-08-21T09:30:09;30.70;93.30
21944;DHT22;11136;48.778;9.126;2023-08-21T09:32:56;30.80;93.20
21944;DHT22;11136;48.778;9.126;2023-08-21T09:35:23;30.90;92.80
21944;DHT22;11136;48.778;9.126;2023-08-21T09:37:48;31.00;92.40
21944;DHT22;11136;48.778;9.126;2023-08-21T09:40:15;31.10;92.30
21944;DHT22;11136;48.778;9.126;2023-08-21T09:42:41;31.10;91.50
21944;DHT22;11136;48.778;9.126;2023-08-21T09:45:07;31.20;91.50
21944;DHT22;11136;48.778;9.126;2023-08-21T09:47:33;31.30;92.10
21944;DHT22;11136;48.778;9.126;2023-08-21T09:49:59;31.40;92.30
21944;DHT22;11136;48.778;9.126;2023-08-21T09:52:26;31.40;92.10
21944;DHT22;11136;48.778;9.126;2023-08-21T09:54:56;31.60;91.60
21944;DHT22;11136;48.778;9.126;2023-08-21T09:57:23;31.60;91.00
21944;DHT22;11136;48.778;9.126;2023-08-21T09:59:57;31.70;90.80
21944;DHT22;11136;48.778;9.126;2023-08-21T10:02:25;31.90;90.10
21944;DHT22;11136;48.778;9.126;2023-08-21T10:04:52;31.90;89.80
21944;DHT22;11136;48.778;9.126;2023-08-21T10:07:21;32.00;89.70
21944;DHT22;11136;48.778;9.126;2023-08-21T10:09:48;32.30;89.50
21944;DHT22;11136;48.778;9.126;2023-08-21T10:12:14;32.10;89.10
21944;DHT22;11136;48.778;9.126;2023-08-21T10:14:42;32.30;88.40
21944;DHT22;11136;48.778;9.126;2023-08-21T10:17:08;32.30;88.30
21944;DHT22;11136;48.778;9.126;2023-08-21T10:19:37;32.50;88.10
21944;DHT22;11136;48.778;9.126;2023-08-21T10:22:02;32.60;86.40
21944;DHT22;11136;48.778;9.126;2023-08-21T10:24:34;32.60;86.00
21944;DHT22;11136;48.778;9.126;2023-08-21T10:27:01;32.60;86.20
21944;DHT22;11136;48.778;9.126;2023-08-21T10:29:27;32.70;85.40
21944;DHT22;11136;48.778;9.126;2023-08-21T10:32:00;32.90;85.40
21944;DHT22;11136;48.778;9.126;2023-08-21T10:34:37;32.80;84.40
21944;DHT22;11136;48.778;9.126;2023-08-21T10:39:28;32.90;84.50
21944;DHT22;11136;48.778;9.126;2023-08-21T10:42:01;32.80;84.70
21944;DHT22;11136;48.778;9.126;2023-08-21T10:49:54;33.00;83.90
21944;DHT22;11136;48.778;9.126;2023-08-21T10:54:51;33.00;82.40
21944;DHT22;11136;48.778;9.126;2023-08-21T10:57:17;33.00;82.20
21944;DHT22;11136;48.778;9.126;2023-08-21T11:02:36;33.00;83.20
21944;DHT22;11136;48.778;9.126;2023-08-21T11:05:02;33.10;82.40
21944;DHT22;11136;48.778;9.126;2023-08-21T11:07:29;33.20;82.00
21944;DHT22;11136;48.778;9.126;2023-08-21T11:09:55;33.20;81.60
21944;DHT22;11136;48.778;9.126;2023-08-21T11:12:23;33.40;81.50
21944;DHT22;11136;48.778;9.126;2023-08-21T11:14:49;33.60;81.10
21944;DHT22;11136;48.778;9.126;2023-08-21T11:17:16;33.50;80.60
21944;DHT22;11136;48.778;9.126;2023-08-21T11:19:42;33.50;79.80
21944;DHT22;11136;48.778;9.126;2023-08-21T11:22:08;33.40;79.40
21944;DHT22;11136;48.778;9.126;2023-08-21T11:27:04;33.40;79.80
21944;DHT22;11136;48.778;9.126;2023-08-21T11:29:36;33.30;80.00
21944;DHT22;11136;48.778;9.126;2023-08-21T11:32:02;33.20;80.20
21944;DHT22;11136;48.778;9.126;2023-08-21T11:34:28;33.10;80.20
21944;DHT22;11136;48.778;9.126;2023-08-21T11:36:54;33.10;81.20
21944;DHT22;11136;48.778;9.126;2023-08-21T11:39:20;33.00;80.40
21944;DHT22;11136;48.778;9.126;2023-08-21T11:41:57;32.90;80.40
21944;DHT22;11136;48.778;9.126;2023-08-21T11:44:22;33.00;80.70
21944;DHT22;11136;48.778;9.126;2023-08-21T11:46:51;33.00;80.70
21944;DHT22;11136;48.778;9.126;2023-08-21T11:49:17;33.10;79.90
21944;DHT22;11136;48.778;9.126;2023-08-21T11:51:45;33.20;80.40
21944;DHT22;11136;48.778;9.126;2023-08-21T11:54:11;33.30;80.00
21944;DHT22;11136;48.778;9.126;2023-08-21T11:56:38;33.50;79.60
21944;DHT22;11136;48.778;9.126;2023-08-21T11:59:04;33.70;79.40
21944;DHT22;11136;48.778;9.126;2023-08-21T12:01:33;33.80;78.50
21944;DHT22;11136;48.778;9.126;2023-08-21T12:03:59;34.00;76.70
21944;DHT22;11136;48.778;9.126;2023-08-21T12:06:25;34.00;75.80
21944;DHT22;11136;48.778;9.126;2023-08-21T12:08:51;34.10;74.90
21944;DHT22;11136;48.778;9.126;2023-08-21T12:11:17;34.10;74.20
21944;DHT22;11136;48.778;9.126;2023-08-21T12:13:43;34.20;74.40
21944;DHT22;11136;48.778;9.126;2023-08-21T12:16:09;34.00;74.30
21944;DHT22;11136;48.778;9.126;2023-08-21T12:18:34;34.10;74.90
21944;DHT22;11136;48.778;9.126;2023-08-21T12:21:00;34.10;74.70
21944;DHT22;11136;48.778;9.126;2023-08-21T12:23:25;34.10;74.40
21944;DHT22;11136;48.778;9.126;2023-08-21T12:25:51;34.20;74.60
21944;DHT22;11136;48.778;9.126;2023-08-21T12:28:16;34.40;74.90
21944;DHT22;11136;48.778;9.126;2023-08-21T12:30:42;34.40;74.30
21944;DHT22;11136;48.778;9.126;2023-08-21T12:33:08;34.40;73.80
21944;DHT22;11136;48.778;9.126;2023-08-21T12:35:33;34.40;73.80
21944;DHT22;11136;48.778;9.126;2023-08-21T12:37:59;34.40;73.80
21944;DHT22;11136;48.778;9.126;2023-08-21T12:40:31;34.40;73.20
21944;DHT22;11136;48.778;9.126;2023-08-21T12:42:57;34.40;72.80
21944;DHT22;11136;48.778;9.126;2023-08-21T12:45:22;34.40;73.00
21944;DHT22;11136;48.778;9.126;2023-08-21T12:47:48;34.50;72.60
21944;DHT22;11136;48.778;9.126;2023-08-21T12:50:13;34.50;72.20
21944;DHT22;11136;48.778;9.126;2023-08-21T12:52:39;34.70;72.20
21944;DHT22;11136;48.778;9.126;2023-08-21T12:55:07;34.70;72.00
21944;DHT22;11136;48.778;9.126;2023-08-21T12:57:32;34.80;71.60
21944;DHT22;11136;48.778;9.126;2023-08-21T12:59:58;34.90;71.10
21944;DHT22;11136;48.778;9.126;2023-08-21T13:02:24;34.70;71.90
21944;DHT22;11136;48.778;9.126;2023-08-21T13:04:49;34.80;72.00
21944;DHT22;11136;48.778;9.126;2023-08-21T13:07:15;34.90;72.10
21944;DHT22;11136;48.778;9.126;2023-08-21T13:09:41;35.10;72.10
21944;DHT22;11136;48.778;9.126;2023-08-21T13:12:06;35.10;71.70
21944;DHT22;11136;48.778;9.126;2023-08-21T13:14:33;35.20;70.80
21944;DHT22;11136;48.778;9.126;2023-08-21T13:16:59;35.20;70.30
21944;DHT22;11136;48.778;9.126;2023-08-21T13:19:24;35.20;70.00
21944;DHT22;11136;48.778;9.126;2023-08-21T13:21:50;35.20;70.10
21944;DHT22;11136;48.778;9.126;2023-08-21T13:24:16;35.20;70.30
21944;DHT22;11136;48.778;9.126;2023-08-21T13:26:42;35.20;70.10
21944;DHT22;11136;48.778;9.126;2023-08-21T13:29:07;35.10;70.00
21944;DHT22;11136;48.778;9.126;2023-08-21T13:31:33;35.10;70.60
21944;DHT22;11136;48.778;9.126;2023-08-21T13:34:00;34.90;69.60
21944;DHT22;11136;48.778;9.126;2023-08-21T13:36:25;34.90;70.10
21944;DHT22;11136;48.778;9.126;2023-08-21T13:38:51;34.80;69.70
21944;DHT22;11136;48.778;9.126;2023-08-21T13:41:16;34.80;69.80
21944;DHT22;11136;48.778;9.126;2023-08-21T13:43:42;34.80;69.80
21944;DHT22;11136;48.778;9.126;2023-08-21T13:46:08;34.90;70.20
21944;DHT22;11136;48.778;9.126;2023-08-21T13:48:33;35.00;69.90
21944;DHT22;11136;48.778;9.126;2023-08-21T13:50:59;35.10;70.30
21944;DHT22;11136;48.778;9.126;2023-08-21T13:53:25;35.20;70.00
21944;DHT22;11136;48.778;9.126;2023-08-21T13:55:51;35.40;69.30
21944;DHT22;11136;48.778;9.126;2023-08-21T13:58:16;35.40;69.20
21944;DHT22;11136;48.778;9.126;2023-08-21T14:00:42;35.50;68.30
21944;DHT22;11136;48.778;9.126;2023-08-21T14:03:10;35.60;67.80
21944;DHT22;11136;48.778;9.126;2023-08-21T14:05:36;35.70;67.60
21944;DHT22;11136;48.778;9.126;2023-08-21T14:08:01;35.70;67.00
21944;DHT22;11136;48.778;9.126;2023-08-21T14:10:28;35.70;66.50
21944;DHT22;11136;48.778;9.126;2023-08-21T14:12:55;35.70;66.90
21944;DHT22;11136;48.778;9.126;2023-08-21T14:15:22;35.70;66.90
21944;DHT22;11136;48.778;9.126;2023-08-21T14:17:48;35.70;66.70
21944;DHT22;11136;48.778;9.126;2023-08-21T14:20:14;35.70;66.00
21944;DHT22;11136;48.778;9.126;2023-08-21T14:22:40;35.70;66.00
21944;DHT22;11136;48.778;9.126;2023-08-21T14:25:06;35.70;66.50
21944;DHT22;11136;48.778;9.126;2023-08-21T14:27:32;35.50;66.30
21944;DHT22;11136;48.778;9.126;2023-08-21T14:29:58;35.50;66.50
21944;DHT22;11136;48.778;9.126;2023-08-21T14:32:24;35.40;67.50
21944;DHT22;11136;48.778;9.126;2023-08-21T14:34:50;35.60;66.20
21944;DHT22;11136;48.778;9.126;2023-08-21T14:37:15;35.60;66.40
21944;DHT22;11136;48.778;9.126;2023-08-21T14:39:44;35.70;66.30
21944;DHT22;11136;48.778;9.126;2023-08-21T14:42:10;35.80;66.20
21944;DHT22;11136;48.778;9.126;2023-08-21T14:44:36;35.80;65.50
21944;DHT22;11136;48.778;9.126;2023-08-21T14:47:02;36.00;65.60
21944;DHT22;11136;48.778;9.126;2023-08-21T14:49:27;36.10;65.10
21944;DHT22;11136;48.778;9.126;2023-08-21T14:51:54;36.30;65.00
21944;DHT22;11136;48.778;9.126;2023-08-21T14:54:19;36.40;65.40
21944;DHT22;11136;48.778;9.126;2023-08-21T14:56:45;36.40;64.70
21944;DHT22;11136;48.778;9.126;2023-08-21T14:59:11;36.40;64.80
21944;DHT22;11136;48.778;9.126;2023-08-21T15:01:39;36.50;64.40
21944;DHT22;11136;48.778;9.126;2023-08-21T15:04:06;36.60;64.20
21944;DHT22;11136;48.778;9.126;2023-08-21T15:06:33;36.50;63.70
21944;DHT22;11136;48.778;9.126;2023-08-21T15:08:58;36.70;63.80
21944;DHT22;11136;48.778;9.126;2023-08-21T15:11:24;36.60;64.10
21944;DHT22;11136;48.778;9.126;2023-08-21T15:13:50;36.70;63.70
21944;DHT22;11136;48.778;9.126;2023-08-21T15:16:16;36.60;63.60
21944;DHT22;11136;48.778;9.126;2023-08-21T15:18:41;36.70;63.90
21944;DHT22;11136;48.778;9.126;2023-08-21T15:21:07;36.80;64.20
21944;DHT22;11136;48.778;9.126;2023-08-21T15:23:33;36.80;63.90
21944;DHT22;11136;48.778;9.126;2023-08-21T15:25:58;36.80;63.40
21944;DHT22;11136;48.778;9.126;2023-08-21T15:28:24;36.70;63.30
21944;DHT22;11136;48.778;9.126;2023-08-21T15:30:49;36.70;63.10
21944;DHT22;11136;48.778;9.126;2023-08-21T15:33:15;36.70;63.10
21944;DHT22;11136;48.778;9.126;2023-08-21T15:35:40;36.70;63.40
21944;DHT22;11136;48.778;9.126;2023-08-21T15:38:06;36.70;63.40
21944;DHT22;11136;48.778;9.126;2023-08-21T15:40:31;36.80;63.70
21944;DHT22;11136;48.778;9.126;2023-08-21T15:43:02;36.50;63.20
21944;DHT22;11136;48.778;9.126;2023-08-21T15:45:28;36.40;63.40